createdAt,value
2023-04-05T00:01:20.324Z,5.02
2023-04-05T00:03:48.829Z,5.09
2023-04-05T00:06:17.309Z,5.11
2023-04-05T00:08:50.069Z,5.17
2023-04-05T00:11:18.782Z,5.19
2023-04-05T00:13:46.900Z,5.18
2023-04-05T00:16:19.071Z,5.13
2023-04-05T00:18:51.694Z,5.04
2023-04-05T00:21:23.004Z,4.92
2023-04-05T00:23:53.066Z,4.89
2023-04-05T00:26:21.349Z,4.95
2023-04-05T00:28:51.163Z,4.95
2023-04-05T00:31:19.295Z,5.03
2023-04-05T00:33:47.925Z,5.09
2023-04-05T00:36:18.153Z,5.09
2023-04-05T00:38:47.231Z,5.07
2023-04-05T00:41:15.336Z,5.03
2023-04-05T00:43:43.894Z,5.00
2023-04-05T00:46:13.665Z,4.96
2023-04-05T00:48:41.604Z,4.96
2023-04-05T00:51:11.855Z,4.98
2023-04-05T00:53:41.385Z,4.94
2023-04-05T00:56:10.417Z,4.90
2023-04-05T00:58:41.475Z,4.86
2023-04-05T01:01:19.921Z,4.83
2023-04-05T01:04:00.081Z,4.84
2023-04-05T01:06:34.026Z,4.76
2023-04-05T01:09:06.617Z,4.78
2023-04-05T01:11:34.713Z,4.86
2023-04-05T01:14:02.751Z,4.91
2023-04-05T01:16:30.877Z,4.98
2023-04-05T01:18:59.096Z,4.96
2023-04-05T01:21:39.454Z,4.87
2023-04-05T01:24:21.093Z,4.81
2023-04-05T01:27:08.252Z,4.80
2023-04-05T01:29:42.176Z,4.83
2023-04-05T01:32:28.165Z,4.87
2023-04-05T01:35:04.735Z,4.80
2023-04-05T01:37:34.593Z,4.70
2023-04-05T01:40:02.774Z,4.64
2023-04-05T01:42:31.551Z,4.69
2023-04-05T01:44:59.629Z,4.77
2023-04-05T01:47:27.622Z,4.82
2023-04-05T01:49:55.803Z,4.87
2023-04-05T01:52:27.046Z,4.85
2023-04-05T01:54:56.499Z,4.85
2023-04-05T01:57:24.627Z,4.87
2023-04-05T01:59:56.904Z,4.85
2023-04-05T02:02:26.122Z,4.84
2023-04-05T02:04:54.573Z,4.80
2023-04-05T02:07:24.513Z,4.78
2023-04-05T02:09:52.504Z,4.79
2023-04-05T02:12:21.045Z,4.85
2023-04-05T02:14:52.732Z,4.85
2023-04-05T02:17:22.035Z,4.78
2023-04-05T02:19:53.022Z,4.68
2023-04-05T02:22:22.823Z,4.59
2023-04-05T02:24:51.354Z,4.60
2023-04-05T02:27:19.494Z,4.57
2023-04-05T02:29:47.579Z,4.56
2023-04-05T02:32:16.096Z,4.57
2023-04-05T02:34:44.245Z,4.61
2023-04-05T02:37:12.315Z,4.65
2023-04-05T02:39:42.262Z,4.68
2023-04-05T02:42:10.470Z,4.65
2023-04-05T02:44:38.916Z,4.62
2023-04-05T02:47:11.004Z,4.58
2023-04-05T02:49:41.553Z,4.59
2023-04-05T02:52:10.741Z,4.60
2023-04-05T02:54:39.242Z,4.58
2023-04-05T02:57:10.676Z,4.57
2023-04-05T02:59:45.475Z,4.59
2023-04-05T03:02:13.469Z,4.60
2023-04-05T03:04:44.992Z,4.67
2023-04-05T03:07:18.696Z,4.70
2023-04-05T03:09:47.836Z,4.69
2023-04-05T03:12:16.467Z,4.69
2023-04-05T03:14:46.467Z,4.68
2023-04-05T03:17:17.519Z,4.72
2023-04-05T03:19:49.814Z,4.78
2023-04-05T03:22:22.143Z,4.80
2023-04-05T03:24:50.132Z,4.73
2023-04-05T03:27:21.986Z,4.69
2023-04-05T03:30:08.360Z,4.65
2023-04-05T03:32:41.536Z,4.60
2023-04-05T03:35:21.196Z,4.57
2023-04-05T03:37:50.716Z,4.58
2023-04-05T03:40:19.187Z,4.57
2023-04-05T03:42:49.007Z,4.56
2023-04-05T03:45:21.110Z,4.61
2023-04-05T03:47:56.080Z,4.72
2023-04-05T03:50:24.220Z,4.70
2023-04-05T03:52:53.672Z,4.61
2023-04-05T03:55:21.893Z,4.61
2023-04-05T03:57:50.692Z,4.62
2023-04-05T04:00:24.673Z,4.65
2023-04-05T04:03:07.751Z,4.74
2023-04-05T04:05:39.423Z,4.77
2023-04-05T04:08:10.054Z,4.79
2023-04-05T04:10:39.121Z,4.79
2023-04-05T04:13:19.875Z,4.81
2023-04-05T04:15:55.018Z,4.83
2023-04-05T04:18:32.142Z,4.83
2023-04-05T04:21:26.542Z,4.89
2023-04-05T04:24:02.192Z,4.98
2023-04-05T04:27:03.474Z,5.03
2023-04-05T04:29:48.553Z,4.98
2023-04-05T04:32:51.876Z,4.94
2023-04-05T04:35:47.313Z,4.93
2023-04-05T04:38:54.770Z,4.92
2023-04-05T04:41:49.016Z,4.98
2023-04-05T04:44:58.213Z,5.00
2023-04-05T04:47:47.233Z,5.05
2023-04-05T04:50:35.148Z,5.05
2023-04-05T04:53:03.556Z,5.11
2023-04-05T04:55:33.965Z,5.21
2023-04-05T04:58:09.947Z,5.26
2023-04-05T05:00:48.310Z,5.27
2023-04-05T05:03:18.646Z,5.22
2023-04-05T05:05:50.334Z,5.16
2023-04-05T05:08:22.418Z,5.14
2023-04-05T05:10:53.370Z,5.12
2023-04-05T05:13:22.394Z,5.08
2023-04-05T05:15:50.695Z,5.06
2023-04-05T05:18:18.791Z,5.06
2023-04-05T05:20:50.590Z,5.11
2023-04-05T05:23:18.784Z,5.19
2023-04-05T05:25:47.480Z,5.22
2023-04-05T05:28:17.491Z,5.15
2023-04-05T05:30:45.939Z,5.14
2023-04-05T05:33:15.112Z,5.12
2023-04-05T05:35:43.602Z,5.16
2023-04-05T05:38:13.893Z,5.18
2023-04-05T05:40:42.454Z,5.19
2023-04-05T05:43:11.740Z,5.18
2023-04-05T05:45:39.938Z,5.15
2023-04-05T05:48:09.855Z,5.15
2023-04-05T05:50:39.572Z,5.06
2023-04-05T05:53:08.791Z,5.05
2023-04-05T05:55:36.978Z,5.09
2023-04-05T05:58:07.798Z,5.17
2023-04-05T06:00:39.497Z,5.22
2023-04-05T06:03:14.540Z,5.22
2023-04-05T06:05:54.393Z,5.25
2023-04-05T06:08:23.027Z,5.32
2023-04-05T06:10:52.286Z,5.23
2023-04-05T06:13:20.528Z,5.12
2023-04-05T06:15:48.817Z,5.01
2023-04-05T06:18:20.779Z,4.91
2023-04-05T06:20:48.733Z,4.86
2023-04-05T06:23:18.440Z,4.85
2023-04-05T06:25:46.506Z,4.88
2023-04-05T06:28:14.502Z,4.90
2023-04-05T06:30:43.110Z,4.92
2023-04-05T06:33:12.120Z,4.99
2023-04-05T06:35:40.728Z,5.04
2023-04-05T06:38:09.602Z,5.05
2023-04-05T06:40:38.001Z,5.07
2023-04-05T06:43:06.507Z,5.10
2023-04-05T06:45:35.113Z,5.11
2023-04-05T06:48:03.555Z,5.04
2023-04-05T06:50:31.832Z,4.97
2023-04-05T06:53:00.219Z,4.92
2023-04-05T06:55:29.797Z,4.92
2023-04-05T06:57:58.319Z,5.03
2023-04-05T07:00:26.699Z,5.11
2023-04-05T07:02:56.077Z,5.25
2023-04-05T07:05:24.285Z,5.29
2023-04-05T07:07:54.974Z,5.26
2023-04-05T07:10:23.042Z,5.25
2023-04-05T07:12:51.140Z,5.33
2023-04-05T07:15:22.764Z,5.38
2023-04-05T07:17:56.087Z,5.42
2023-04-05T07:20:23.984Z,5.47
2023-04-05T07:22:52.225Z,5.50
2023-04-05T07:25:23.584Z,5.50
2023-04-05T07:27:54.603Z,5.48
2023-04-05T07:30:22.708Z,5.47
2023-04-05T07:32:55.575Z,5.44
2023-04-05T07:35:24.468Z,5.42
2023-04-05T07:37:57.758Z,5.39
2023-04-05T07:40:26.235Z,5.42
2023-04-05T07:42:54.873Z,5.38
2023-04-05T07:45:23.571Z,5.38
2023-04-05T07:47:51.816Z,5.41
2023-04-05T07:50:19.943Z,5.37
2023-04-05T07:52:48.060Z,5.40
2023-04-05T07:55:17.449Z,5.45
2023-04-05T07:57:45.950Z,5.51
2023-04-05T08:00:15.709Z,5.57
2023-04-05T08:02:48.244Z,5.55
2023-04-05T08:05:16.627Z,5.52
2023-04-05T08:07:44.781Z,5.50
2023-04-05T08:12:53.757Z,5.55
2023-04-05T08:15:22.148Z,5.55
2023-04-05T08:17:50.870Z,5.56
2023-04-05T08:20:19.205Z,5.58
2023-04-05T08:22:47.922Z,5.67
2023-04-05T08:25:15.988Z,5.69
2023-04-05T08:27:44.315Z,5.76
2023-04-05T08:30:13.294Z,5.82
2023-04-05T08:32:41.537Z,5.85
2023-04-05T08:35:09.541Z,5.88
2023-04-05T08:37:38.330Z,5.96
2023-04-05T08:40:07.294Z,6.03
2023-04-05T08:42:53.082Z,6.05
2023-04-05T08:45:22.422Z,6.02
2023-04-05T08:47:53.059Z,6.10
2023-04-05T08:50:21.090Z,6.19
2023-04-05T08:52:50.669Z,6.30
2023-04-05T08:55:19.562Z,6.34
2023-04-05T08:57:51.334Z,6.29
2023-04-05T09:00:19.563Z,6.22
2023-04-05T09:02:51.270Z,6.18
2023-04-05T09:05:21.137Z,6.17
2023-04-05T09:07:49.252Z,6.21
2023-04-05T09:10:19.988Z,6.24
2023-04-05T09:12:48.734Z,6.22
2023-04-05T09:15:16.867Z,6.22
2023-04-05T09:17:46.455Z,6.21
2023-04-05T09:20:15.823Z,6.23
2023-04-05T09:22:47.146Z,6.27
2023-04-05T09:25:31.588Z,6.29
2023-04-05T09:27:59.908Z,6.26
2023-04-05T09:30:28.132Z,6.23
2023-04-05T09:32:57.009Z,6.27
2023-04-05T09:35:26.226Z,6.34
2023-04-05T09:37:56.346Z,6.38
2023-04-05T09:40:49.121Z,6.34
2023-04-05T09:43:36.761Z,6.31
2023-04-05T09:46:04.768Z,6.21
2023-04-05T09:48:58.015Z,6.17
2023-04-05T09:51:37.255Z,6.23
2023-04-05T09:54:11.565Z,6.27
2023-04-05T09:56:41.448Z,6.28
2023-04-05T09:59:11.873Z,6.33
2023-04-05T10:01:43.802Z,6.36
2023-04-05T10:04:13.332Z,6.28
2023-04-05T10:06:42.453Z,6.28
2023-04-05T10:09:11.487Z,6.36
2023-04-05T10:11:42.569Z,6.40
2023-04-05T10:14:11.453Z,6.40
2023-04-05T10:16:47.604Z,6.46
2023-04-05T10:19:49.536Z,6.51
2023-04-05T10:22:55.081Z,6.52
2023-04-05T10:25:27.571Z,6.54
2023-04-05T10:28:05.847Z,6.48
2023-04-05T10:30:40.908Z,6.44
2023-04-05T10:33:21.968Z,6.41
2023-04-05T10:35:58.531Z,6.38
2023-04-05T10:38:30.182Z,6.43
2023-04-05T10:41:06.908Z,6.48
2023-04-05T10:43:35.023Z,6.49
2023-04-05T10:46:03.345Z,6.54
2023-04-05T10:48:49.927Z,6.60
2023-04-05T10:51:18.058Z,6.56
2023-04-05T10:53:46.763Z,6.53
2023-04-05T10:56:20.079Z,6.54
2023-04-05T10:58:51.789Z,6.62
2023-04-05T11:01:23.473Z,6.74
2023-04-05T11:03:52.546Z,6.84
2023-04-05T11:06:25.298Z,6.94
2023-04-05T11:09:20.950Z,6.99
2023-04-05T11:11:52.570Z,7.00
2023-04-05T11:14:37.133Z,7.02
2023-04-05T11:17:28.614Z,7.00
2023-04-05T11:20:04.630Z,6.97
2023-04-05T11:22:33.397Z,6.97
2023-04-05T11:25:03.202Z,6.95
2023-04-05T11:27:34.009Z,6.92
2023-04-05T11:30:04.351Z,6.89
2023-04-05T11:32:44.179Z,6.95
2023-04-05T11:35:16.308Z,7.03
2023-04-05T11:38:01.486Z,7.05
2023-04-05T11:40:31.197Z,7.08
2023-04-05T11:43:01.293Z,7.14
2023-04-05T11:45:33.079Z,7.17
2023-04-05T11:48:05.145Z,7.11
2023-04-05T11:50:33.701Z,7.08
2023-04-05T11:53:28.311Z,7.05
2023-04-05T11:55:57.081Z,7.12
2023-04-05T11:58:25.531Z,7.19
2023-04-05T12:01:01.011Z,7.22
2023-04-05T12:03:30.783Z,7.20
2023-04-05T12:06:01.844Z,7.18
2023-04-05T12:08:49.955Z,7.10
2023-04-05T12:11:27.855Z,7.12
2023-04-05T12:13:59.936Z,7.19
2023-04-05T12:16:28.537Z,7.29
2023-04-05T12:18:58.637Z,7.39
2023-04-05T12:21:27.773Z,7.45
2023-04-05T12:23:56.217Z,7.45
2023-04-05T12:26:26.903Z,7.45
2023-04-05T12:29:00.359Z,7.50
2023-04-05T12:31:41.098Z,7.53
2023-04-05T12:34:10.008Z,7.51
2023-04-05T12:36:39.746Z,7.46
2023-04-05T12:39:09.199Z,7.47
2023-04-05T12:41:37.716Z,7.46
2023-04-05T12:44:11.394Z,7.45
2023-04-05T12:46:43.425Z,7.39
2023-04-05T12:49:13.802Z,7.37
2023-04-05T12:51:46.163Z,7.38
2023-04-05T12:54:23.373Z,7.43
2023-04-05T12:56:53.273Z,7.52
2023-04-05T12:59:22.253Z,7.56
2023-04-05T13:01:51.461Z,7.56
2023-04-05T13:04:19.763Z,7.61
2023-04-05T13:06:48.400Z,7.66
2023-04-05T13:09:17.355Z,7.73
2023-04-05T13:11:45.606Z,7.77
2023-04-05T13:14:14.261Z,7.76
2023-04-05T13:16:44.133Z,7.75
2023-04-05T13:19:12.363Z,7.75
2023-04-05T13:21:46.377Z,7.76
2023-04-05T13:24:15.310Z,7.73
2023-04-05T13:26:45.301Z,7.65
2023-04-05T13:29:15.908Z,7.61
2023-04-05T13:31:44.384Z,7.64
2023-04-05T13:34:13.013Z,7.69
2023-04-05T13:36:41.107Z,7.64
2023-04-05T13:39:09.829Z,7.60
2023-04-05T13:41:38.110Z,7.53
2023-04-05T13:44:06.861Z,7.46
2023-04-05T13:46:35.758Z,7.41
2023-04-05T13:49:03.916Z,7.38
2023-04-05T13:51:34.697Z,7.36
2023-04-05T13:54:03.773Z,7.36
2023-04-05T13:56:34.835Z,7.36
2023-04-05T13:59:04.382Z,7.38
2023-04-05T14:01:34.432Z,7.37
2023-04-05T14:04:02.535Z,7.36
2023-04-05T14:06:31.214Z,7.35
2023-04-05T14:08:59.511Z,7.38
2023-04-05T14:11:28.597Z,7.40
2023-04-05T14:13:56.670Z,7.42
2023-04-05T14:16:32.142Z,7.45
2023-04-05T14:19:01.111Z,7.50
2023-04-05T14:21:30.021Z,7.49
2023-04-05T14:23:58.802Z,7.44
2023-04-05T14:26:27.865Z,7.43
2023-04-05T14:28:56.056Z,7.37
2023-04-05T14:31:26.214Z,7.36
2023-04-05T14:33:55.454Z,7.28
2023-04-05T14:36:23.479Z,7.22
2023-04-05T14:38:56.399Z,7.24
2023-04-05T14:41:24.843Z,7.24
2023-04-05T14:43:53.482Z,7.24
2023-04-05T14:46:21.542Z,7.30
2023-04-05T14:48:49.539Z,7.35
2023-04-05T14:51:17.457Z,7.39
2023-04-05T14:53:48.324Z,7.45
2023-04-05T14:56:17.642Z,7.47
2023-04-05T14:58:45.591Z,7.46
2023-04-05T15:01:13.574Z,7.45
2023-04-05T15:03:42.850Z,7.44
2023-04-05T15:06:11.022Z,7.45
2023-04-05T15:08:39.266Z,7.44
2023-04-05T15:11:12.510Z,7.46
2023-04-05T15:13:41.065Z,7.47
2023-04-05T15:16:09.539Z,7.48
2023-04-05T15:18:39.572Z,7.47
2023-04-05T15:21:07.887Z,7.45
2023-04-05T15:23:40.710Z,7.46
2023-04-05T15:26:08.896Z,7.43
2023-04-05T15:28:36.797Z,7.44
2023-04-05T15:31:04.769Z,7.47
2023-04-05T15:33:33.149Z,7.48
2023-04-05T15:36:01.215Z,7.46
2023-04-05T15:38:29.795Z,7.40
2023-04-05T15:40:58.006Z,7.29
2023-04-05T15:43:26.688Z,7.26
2023-04-05T15:45:55.017Z,7.21
2023-04-05T15:48:22.968Z,7.20
2023-04-05T15:50:51.248Z,7.15
2023-04-05T15:53:19.243Z,7.15
2023-04-05T15:55:47.801Z,7.17
2023-04-05T15:58:15.930Z,7.17
2023-04-05T16:00:45.971Z,7.14
2023-04-05T16:03:15.117Z,7.06
2023-04-05T16:05:43.226Z,7.07
2023-04-05T16:08:13.282Z,7.01
2023-04-05T16:10:42.667Z,7.02
2023-04-05T16:13:11.765Z,7.03
2023-04-05T16:15:40.936Z,7.02
2023-04-05T16:18:11.146Z,6.98
2023-04-05T16:20:39.506Z,6.99
2023-04-05T16:23:08.530Z,7.03
2023-04-05T16:25:36.464Z,6.99
2023-04-05T16:28:06.620Z,6.97
2023-04-05T16:30:35.933Z,6.98
2023-04-05T16:33:04.108Z,6.98
2023-04-05T16:35:33.069Z,6.96
2023-04-05T16:38:02.748Z,6.91
2023-04-05T16:40:32.580Z,6.88
2023-04-05T16:43:00.988Z,6.84
2023-04-05T16:45:30.750Z,6.88
2023-04-05T16:47:59.622Z,6.90
2023-04-05T16:50:27.788Z,6.92
2023-04-05T16:52:56.197Z,6.93
2023-04-05T16:55:24.244Z,6.93
2023-04-05T16:57:54.196Z,6.91
2023-04-05T17:00:23.111Z,6.91
2023-04-05T17:02:52.547Z,6.93
2023-04-05T17:05:21.092Z,6.97
2023-04-05T17:07:51.188Z,6.99
2023-04-05T17:10:19.387Z,7.05
2023-04-05T17:12:51.832Z,7.09
2023-04-05T17:15:19.901Z,7.08
2023-04-05T17:17:47.979Z,7.05
2023-04-05T17:20:16.334Z,7.04
2023-04-05T17:22:46.158Z,7.01
2023-04-05T17:25:14.240Z,6.98
2023-04-05T17:27:42.502Z,6.98
2023-04-05T17:30:11.518Z,7.00
2023-04-05T17:32:39.949Z,7.05
2023-04-05T17:35:08.895Z,7.10
2023-04-05T17:37:37.582Z,7.14
2023-04-05T17:40:07.188Z,7.10
2023-04-05T17:42:36.334Z,7.10
2023-04-05T17:45:05.250Z,7.11
2023-04-05T17:47:33.682Z,7.12
2023-04-05T17:50:01.881Z,7.10
2023-04-05T17:52:31.393Z,7.09
2023-04-05T17:54:59.658Z,7.08
2023-04-05T17:57:27.684Z,7.10
2023-04-05T17:59:57.481Z,7.13
2023-04-05T18:02:25.747Z,7.14
2023-04-05T18:04:54.173Z,7.17
2023-04-05T18:07:22.326Z,7.20
2023-04-05T18:09:50.827Z,7.18
2023-04-05T18:12:19.186Z,7.15
2023-04-05T18:14:47.374Z,7.15
2023-04-05T18:17:17.896Z,7.21
2023-04-05T18:19:49.586Z,7.25
2023-04-05T18:22:18.067Z,7.23
2023-04-05T18:24:46.241Z,7.26
2023-04-05T18:27:14.660Z,7.30
2023-04-05T18:29:46.297Z,7.27
2023-04-05T18:32:14.633Z,7.25
2023-04-05T18:34:42.949Z,7.28
2023-04-05T18:37:11.866Z,7.32
2023-04-05T18:39:40.187Z,7.36
2023-04-05T18:42:08.267Z,7.38
2023-04-05T18:44:36.668Z,7.36
2023-04-05T18:47:05.048Z,7.32
2023-04-05T18:49:34.271Z,7.28
2023-04-05T18:52:02.231Z,7.30
2023-04-05T18:54:35.532Z,7.36
2023-04-05T18:57:04.977Z,7.35
2023-04-05T18:59:33.498Z,7.32
2023-04-05T19:02:01.670Z,7.31
2023-04-05T19:04:31.717Z,7.26
2023-04-05T19:06:59.814Z,7.25
2023-04-05T19:09:28.116Z,7.33
2023-04-05T19:11:57.004Z,7.34
2023-04-05T19:14:31.725Z,7.37
2023-04-05T19:16:59.854Z,7.40
2023-04-05T19:19:28.233Z,7.42
2023-04-05T19:21:58.898Z,7.45
2023-04-05T19:24:27.595Z,7.52
2023-04-05T19:26:57.278Z,7.55
2023-04-05T19:29:25.796Z,7.53
2023-04-05T19:31:54.484Z,7.48
2023-04-05T19:34:22.710Z,7.41
2023-04-05T19:36:50.855Z,7.41
2023-04-05T19:39:19.022Z,7.42
2023-04-05T19:41:47.290Z,7.45
2023-04-05T19:44:42.780Z,7.45
2023-04-05T19:47:13.952Z,7.45
2023-04-05T19:49:42.577Z,7.50
2023-04-05T19:52:13.056Z,7.49
2023-04-05T19:54:42.079Z,7.50
2023-04-05T19:57:11.681Z,7.54
2023-04-05T19:59:43.533Z,7.59
2023-04-05T20:02:34.354Z,7.65
2023-04-05T20:05:05.059Z,7.70
2023-04-05T20:07:36.265Z,7.72
2023-04-05T20:10:13.804Z,7.74
2023-04-05T20:12:44.839Z,7.73
2023-04-05T20:15:15.950Z,7.79
2023-04-05T20:17:47.165Z,7.81
2023-04-05T20:20:16.678Z,7.82
2023-04-05T20:22:44.984Z,7.84
2023-04-05T20:25:36.508Z,7.85
2023-04-05T20:29:46.376Z,7.94
2023-04-05T20:32:15.138Z,7.94
2023-04-05T20:34:44.169Z,7.97
2023-04-05T20:37:19.201Z,8.03
2023-04-05T20:39:47.243Z,8.04
2023-04-05T20:42:15.495Z,8.02
2023-04-05T20:44:49.067Z,8.02
2023-04-05T20:47:17.122Z,8.00
2023-04-05T20:49:47.649Z,7.99
2023-04-05T20:52:17.440Z,7.95
2023-04-05T20:54:47.296Z,7.92
2023-04-05T20:57:16.211Z,7.93
2023-04-05T20:59:44.694Z,7.95
2023-04-05T21:02:13.106Z,7.93
2023-04-05T21:04:42.638Z,7.93
2023-04-05T21:07:12.111Z,7.93
2023-04-05T21:09:40.469Z,7.96
2023-04-05T21:12:08.611Z,7.98
2023-04-05T21:14:37.331Z,7.99
2023-04-05T21:17:05.398Z,7.99
2023-04-05T21:19:33.746Z,7.95
2023-04-05T21:22:02.681Z,7.93
2023-04-05T21:24:31.195Z,7.95
2023-04-05T21:26:59.626Z,8.02
2023-04-05T21:29:37.383Z,8.09
2023-04-05T21:32:06.279Z,8.14
2023-04-05T21:34:34.344Z,8.14
2023-04-05T21:37:03.613Z,8.17
2023-04-05T21:39:33.248Z,8.23
2023-04-05T21:42:01.407Z,8.28
2023-04-05T21:44:29.937Z,8.32
2023-04-05T21:46:59.573Z,8.34
2023-04-05T21:49:38.129Z,8.32
2023-04-05T21:52:06.355Z,8.27
2023-04-05T21:54:34.459Z,8.26
2023-04-05T21:57:04.898Z,8.21
2023-04-05T21:59:33.387Z,8.21
2023-04-05T22:02:01.942Z,8.25
2023-04-05T22:04:30.161Z,8.33
2023-04-05T22:06:58.285Z,8.37
2023-04-05T22:09:28.288Z,8.40
2023-04-05T22:12:01.605Z,8.42
2023-04-05T22:14:30.769Z,8.44
2023-04-05T22:16:59.120Z,8.47
2023-04-05T22:19:32.150Z,8.47
2023-04-05T22:22:00.547Z,8.50
2023-04-05T22:24:28.556Z,8.51
2023-04-05T22:26:57.346Z,8.53
2023-04-05T22:29:25.501Z,8.53
2023-04-05T22:31:54.610Z,8.48
2023-04-05T22:34:22.866Z,8.39
2023-04-05T22:36:50.887Z,8.36
2023-04-05T22:39:18.963Z,8.38
2023-04-05T22:41:46.941Z,8.36
2023-04-05T22:44:21.730Z,8.40
2023-04-05T22:46:49.752Z,8.42
2023-04-05T22:49:17.808Z,8.44
2023-04-05T22:51:46.821Z,8.50
2023-04-05T22:54:14.868Z,8.52
2023-04-05T22:56:44.629Z,8.56
2023-04-05T22:59:12.820Z,8.61
2023-04-05T23:01:41.217Z,8.60
2023-04-05T23:04:09.968Z,8.59
2023-04-05T23:06:39.121Z,8.58
2023-04-05T23:09:08.279Z,8.57
2023-04-05T23:11:36.687Z,8.63
2023-04-05T23:14:05.176Z,8.67
2023-04-05T23:16:33.233Z,8.68
2023-04-05T23:19:01.980Z,8.63
2023-04-05T23:21:31.265Z,8.59
2023-04-05T23:23:59.449Z,8.60
2023-04-05T23:26:27.812Z,8.62
2023-04-05T23:28:56.050Z,8.66
2023-04-05T23:31:24.713Z,8.67
2023-04-05T23:33:54.295Z,8.68
2023-04-05T23:36:22.435Z,8.72
2023-04-05T23:38:50.504Z,8.70
2023-04-05T23:41:18.641Z,8.71
2023-04-05T23:43:47.381Z,8.71
2023-04-05T23:46:15.517Z,8.70
2023-04-05T23:48:44.874Z,8.73
2023-04-05T23:51:12.853Z,8.74
2023-04-05T23:53:40.972Z,8.72
2023-04-05T23:56:09.745Z,8.69
2023-04-05T23:58:37.989Z,8.70
